Time;durP1;ratioP1;P1;durP2;ratioP2;P2;SDS_P1;SDS_P2;PMS_P1;PMS_P2;Temp;Humidity;BMP_temperature;BMP_pressure;BME280_temperature;BME280_humidity;BME280_pressure;Samples;Min_cycle;Max_cycle;Signal;HPM_P1;HPM_P2
2021/09/23 00:00:26;;;;;;;29.92;13.70;;;;;;;10.17;100.00;98454.69;5039756;28;20033;-81
2021/09/23 00:05:24;;;;;;;23.58;12.38;;;;;;;10.14;100.00;98452.56;5034880;28;20056;-80
2021/09/23 00:07:55;;;;;;;28.30;13.95;;;;;;;10.27;100.00;98462.66;5020586;28;20119;-80
2021/09/23 00:10:24;;;;;;;32.20;13.85;;;;;;;10.38;100.00;98455.97;5022070;28;20080;-81
2021/09/23 00:12:52;;;;;;;28.80;12.45;;;;;;;10.41;100.00;98458.91;5039881;28;20083;-80
2021/09/23 00:15:19;;;;;;;24.25;13.23;;;;;;;10.39;100.00;98454.91;5001305;28;20057;-81
2021/09/23 00:17:51;;;;;;;32.58;15.82;;;;;;;10.54;100.00;98460.06;5016357;28;20049;-81
2021/09/23 00:20:21;;;;;;;32.83;13.68;;;;;;;10.52;100.00;98452.25;4999982;28;20049;-80
2021/09/23 00:22:51;;;;;;;34.25;12.50;;;;;;;10.50;100.00;98432.78;5032751;28;20099;-80
2021/09/23 00:25:18;;;;;;;30.60;13.60;;;;;;;10.59;100.00;98439.16;5014912;28;20053;-81
2021/09/23 00:27:46;;;;;;;26.42;12.82;;;;;;;10.67;100.00;98440.38;5032307;28;20083;-81
2021/09/23 00:30:13;;;;;;;27.48;13.73;;;;;;;10.68;100.00;98439.28;5015088;28;20056;-80
2021/09/23 00:32:40;;;;;;;24.35;11.55;;;;;;;10.68;100.00;98431.16;5015693;28;20041;-80
2021/09/23 00:35:08;;;;;;;20.33;11.65;;;;;;;10.65;100.00;98437.16;5015394;28;20051;-80
2021/09/23 00:37:35;;;;;;;26.77;12.23;;;;;;;10.68;100.00;98431.16;4999982;28;20490;-80
2021/09/23 00:40:08;;;;;;;25.30;12.20;;;;;;;10.71;100.00;98427.84;5035753;28;20136;-81
2021/09/23 00:42:38;;;;;;;19.98;11.18;;;;;;;10.72;100.00;98429.47;5040349;28;20046;-80
2021/09/23 00:45:07;;;;;;;27.55;13.65;;;;;;;10.76;100.00;98432.38;5032647;28;20049;-80
2021/09/23 00:47:33;;;;;;;25.67;12.23;;;;;;;10.79;100.00;98423.69;5033052;28;20041;-79
2021/09/23 00:50:00;;;;;;;28.48;14.10;;;;;;;10.91;100.00;98432.13;5014366;28;20049;-80
2021/09/23 00:52:28;;;;;;;23.08;12.50;;;;;;;10.78;100.00;98413.94;5032534;28;20045;-80
2021/09/23 00:54:56;;;;;;;31.05;12.68;;;;;;;10.80;100.00;98417.94;5014305;28;20045;-80
2021/09/23 00:57:22;;;;;;;28.02;12.95;;;;;;;10.83;100.00;98417.38;5025437;28;20044;-81
2021/09/23 00:59:54;;;;;;;29.33;13.82;;;;;;;10.97;100.00;98410.06;5015241;28;20501;-80
2021/09/23 01:02:21;;;;;;;25.50;13.93;;;;;;;11.03;100.00;98419.72;5016099;28;20130;-80
2021/09/23 01:04:50;;;;;;;23.50;11.38;;;;;;;11.09;100.00;98423.13;5015160;28;20105;-80
2021/09/23 01:07:18;;;;;;;27.23;12.80;;;;;;;11.11;100.00;98419.03;4997753;28;20057;-79
2021/09/23 01:09:51;;;;;;;25.60;14.13;;;;;;;11.18;100.00;98416.72;5032187;28;20046;-79
2021/09/23 01:12:19;;;;;;;30.42;14.10;;;;;;;11.08;100.00;98411.50;4997867;28;20055;-81
2021/09/23 01:14:47;;;;;;;29.08;13.48;;;;;;;11.14;100.00;98413.00;5015029;28;20037;-80
2021/09/23 01:17:15;;;;;;;25.83;13.13;;;;;;;11.11;100.00;98401.97;5014322;28;20060;-80
2021/09/23 01:19:43;;;;;;;25.52;14.85;;;;;;;11.21;100.00;98408.00;5014312;28;20052;-81
2021/09/23 01:22:12;;;;;;;29.50;14.93;;;;;;;11.26;100.00;98394.34;5032804;28;20069;-80
2021/09/23 01:24:40;;;;;;;27.27;14.75;;;;;;;11.35;100.00;98416.16;5032448;28;20045;-81
2021/09/23 01:27:07;;;;;;;29.60;15.02;;;;;;;11.42;100.00;98408.41;5015359;28;20060;-79
2021/09/23 01:29:36;;;;;;;27.65;13.93;;;;;;;11.57;100.00;98408.09;5015564;28;20069;-81
2021/09/23 01:32:05;;;;;;;24.35;13.30;;;;;;;11.48;100.00;98400.97;5015228;28;20041;-81
2021/09/23 01:34:36;;;;;;;25.35;12.88;;;;;;;11.47;100.00;98405.59;5034462;28;20493;-82
2021/09/23 01:37:07;;;;;;;28.20;13.35;;;;;;;11.40;100.00;98398.97;4999555;28;20591;-83
2021/09/23 01:39:36;;;;;;;32.10;13.85;;;;;;;11.33;100.00;98390.44;5010646;28;20133;-80
2021/09/23 01:42:04;;;;;;;24.45;13.15;;;;;;;11.26;100.00;98388.94;4974487;28;20041;-82
2021/09/23 01:44:32;;;;;;;27.02;14.77;;;;;;;11.24;100.00;98383.00;5009608;28;20052;-81
2021/09/23 01:46:59;;;;;;;24.20;12.32;;;;;;;11.20;100.00;98384.69;4997996;28;20060;-82
2021/09/23 01:49:28;;;;;;;27.77;14.00;;;;;;;11.21;100.00;98388.22;5016562;28;20064;-82
2021/09/23 01:51:55;;;;;;;30.52;13.98;;;;;;;11.17;100.00;98377.16;4999159;28;20073;-83
2021/09/23 01:54:22;;;;;;;27.52;15.00;;;;;;;11.27;100.00;98381.59;4996868;28;20429;-80
2021/09/23 01:56:53;;;;;;;30.35;16.45;;;;;;;11.32;100.00;98384.22;4993844;28;20041;-79
2021/09/23 01:59:21;;;;;;;32.67;16.40;;;;;;;11.43;100.00;98380.19;4994926;28;20105;-80
2021/09/23 02:01:48;;;;;;;30.60;15.95;;;;;;;11.51;100.00;98365.13;4994687;28;20045;-80
2021/09/23 02:04:16;;;;;;;31.67;15.23;;;;;;;11.48;100.00;98368.44;5010539;28;20053;-80
2021/09/23 02:06:42;;;;;;;29.17;15.02;;;;;;;11.40;100.00;98372.66;4994334;28;20056;-80
2021/09/23 02:09:09;;;;;;;27.88;14.90;;;;;;;11.43;100.00;98372.06;5011910;28;20670;-81
2021/09/23 02:11:36;;;;;;;28.75;15.10;;;;;;;11.48;100.00;98363.84;4993931;28;20403;-81
2021/09/23 02:14:03;;;;;;;33.13;15.75;;;;;;;11.47;100.00;98366.81;4994124;28;20049;-80
2021/09/23 02:16:30;;;;;;;32.22;15.88;;;;;;;11.43;100.00;98366.66;4993846;28;20070;-81
2021/09/23 02:18:58;;;;;;;28.80;15.73;;;;;;;11.47;100.00;98356.78;5010914;28;20053;-80
2021/09/23 02:21:24;;;;;;;27.00;15.07;;;;;;;11.47;100.00;98347.84;5011026;28;20419;-80
2021/09/23 02:23:51;;;;;;;34.10;16.38;;;;;;;11.50;100.00;98344.53;5010881;28;20052;-80
2021/09/23 02:26:18;;;;;;;27.35;14.35;;;;;;;11.51;100.00;98338.03;4993817;28;20046;-81
2021/09/23 02:28:45;;;;;;;27.35;14.95;;;;;;;11.55;100.00;98334.38;4993173;28;20056;-81
2021/09/23 02:31:12;;;;;;;29.02;14.55;;;;;;;11.66;100.00;98329.56;5013175;28;20049;-81
2021/09/23 02:33:38;;;;;;;32.10;13.75;;;;;;;11.79;100.00;98332.25;4997800;28;20058;-80
2021/09/23 02:36:06;;;;;;;25.40;13.95;;;;;;;11.90;100.00;98332.81;4996513;28;20061;-80
2021/09/23 02:38:33;;;;;;;25.58;13.70;;;;;;;11.84;100.00;98317.78;5002887;28;20054;-81
2021/09/23 02:41:00;;;;;;;24.13;12.73;;;;;;;11.94;100.00;98316.75;5005145;28;20112;-81
2021/09/23 02:43:27;;;;;;;20.98;12.80;;;;;;;12.13;100.00;98314.66;5019604;28;20041;-81
2021/09/23 02:45:53;;;;;;;20.55;12.25;;;;;;;12.16;100.00;98298.56;4982505;28;20077;-81
2021/09/23 02:48:20;;;;;;;23.83;12.48;;;;;;;12.21;100.00;98294.91;5014666;28;20395;-81
2021/09/23 02:50:47;;;;;;;21.52;12.10;;;;;;;12.30;100.00;98298.50;4997658;28;20038;-80
2021/09/23 02:53:13;;;;;;;22.13;11.07;;;;;;;12.20;100.00;98296.84;4996714;28;20083;-81
2021/09/23 02:55:40;;;;;;;19.85;10.90;;;;;;;12.16;100.00;98297.75;5014684;28;20057;-82
2021/09/23 02:58:07;;;;;;;19.73;11.05;;;;;;;12.08;100.00;98290.38;4995905;28;20164;-81
2021/09/23 03:00:33;;;;;;;22.73;11.40;;;;;;;12.12;100.00;98283.19;4996561;28;20050;-80
2021/09/23 03:03:00;;;;;;;20.05;10.10;;;;;;;12.08;100.00;98284.94;4980772;28;20042;-81
2021/09/23 03:05:27;;;;;;;18.85;9.75;;;;;;;11.89;100.00;98274.25;4980774;28;20053;-80
2021/09/23 03:07:54;;;;;;;17.73;10.55;;;;;;;11.79;100.00;98272.56;5014482;28;20587;-80
2021/09/23 03:10:21;;;;;;;19.13;10.45;;;;;;;11.67;100.00;98261.44;5014382;28;20046;-81
2021/09/23 03:12:48;;;;;;;16.65;10.55;;;;;;;11.42;100.00;98258.50;5012952;28;20145;-80
2021/09/23 03:15:15;;;;;;;22.10;10.68;;;;;;;11.33;100.00;98249.50;4990819;28;20066;-80
2021/09/23 03:17:41;;;;;;;21.38;11.07;;;;;;;11.18;100.00;98253.31;5005254;28;20033;-81
2021/09/23 03:20:09;;;;;;;23.60;10.20;;;;;;;11.05;100.00;98251.41;5022147;28;20057;-80
2021/09/23 03:22:36;;;;;;;19.27;10.52;;;;;;;10.91;100.00;98248.72;5001491;28;20108;-80
2021/09/23 03:25:03;;;;;;;20.20;11.60;;;;;;;10.81;100.00;98253.53;5013886;28;20069;-80
2021/09/23 03:27:30;;;;;;;19.55;11.18;;;;;;;10.59;100.00;98252.31;5022290;28;20128;-81
2021/09/23 03:29:56;;;;;;;21.73;11.52;;;;;;;10.53;100.00;98255.41;5018990;28;20038;-80
2021/09/23 03:32:23;;;;;;;24.05;11.35;;;;;;;10.52;100.00;98251.94;4994899;28;20041;-80
2021/09/23 03:34:50;;;;;;;24.60;12.68;;;;;;;10.43;100.00;98252.91;5012781;28;20069;-79
2021/09/23 03:37:19;;;;;;;28.05;14.57;;;;;;;10.37;100.00;98257.63;4995146;28;20524;-79
2021/09/23 03:39:46;;;;;;;20.98;13.10;;;;;;;10.29;100.00;98249.38;4995666;28;20045;-79
2021/09/23 03:42:12;;;;;;;23.83;13.68;;;;;;;10.30;100.00;98245.53;4994551;28;20049;-80
2021/09/23 03:44:39;;;;;;;29.27;14.07;;;;;;;10.16;100.00;98247.44;4995422;28;20053;-80
2021/09/23 03:47:05;;;;;;;21.25;13.25;;;;;;;10.17;100.00;98241.72;4979321;28;20046;-80
2021/09/23 03:49:32;;;;;;;22.83;12.85;;;;;;;10.22;100.00;98238.13;4980274;28;20450;-83
2021/09/23 03:51:59;;;;;;;22.15;12.40;;;;;;;10.17;100.00;98249.06;4980435;28;20045;-79
2021/09/23 03:54:26;;;;;;;23.25;12.13;;;;;;;10.12;100.00;98243.69;5013510;28;20490;-79
2021/09/23 03:56:52;;;;;;;25.52;12.98;;;;;;;10.15;100.00;98237.69;4979253;28;20399;-80
2021/09/23 03:59:19;;;;;;;28.67;13.25;;;;;;;10.10;100.00;98240.47;4995161;28;20065;-80
2021/09/23 04:01:46;;;;;;;22.83;12.90;;;;;;;10.01;100.00;98233.03;5014389;28;20041;-80
2021/09/23 04:04:14;;;;;;;25.27;11.85;;;;;;;9.93;100.00;98239.13;5015640;28;20034;-81
2021/09/23 04:06:44;;;;;;;19.58;12.10;;;;;;;9.84;100.00;98232.78;4998431;28;20053;-80
2021/09/23 04:09:11;;;;;;;20.42;11.70;;;;;;;9.89;100.00;98237.28;4996551;28;20042;-78
2021/09/23 04:11:39;;;;;;;24.88;11.48;;;;;;;9.86;100.00;98240.59;5013370;28;20042;-80
2021/09/23 04:14:07;;;;;;;22.77;13.20;;;;;;;9.83;100.00;98239.28;5012730;28;20052;-80
2021/09/23 04:16:34;;;;;;;23.00;13.50;;;;;;;9.80;100.00;98242.59;4995770;28;20046;-79
2021/09/23 04:19:01;;;;;;;23.77;12.77;;;;;;;9.77;100.00;98223.44;4995340;28;20048;-79
2021/09/23 04:21:28;;;;;;;23.67;13.52;;;;;;;9.76;100.00;98230.75;5013980;28;20041;-80
2021/09/23 04:23:55;;;;;;;24.05;13.10;;;;;;;9.73;100.00;98219.72;4997990;28;20065;-79
2021/09/23 04:26:22;;;;;;;24.42;13.18;;;;;;;9.81;100.00;98227.94;4983461;28;20046;-79
2021/09/23 04:28:49;;;;;;;25.33;13.27;;;;;;;9.74;100.00;98221.31;4996575;28;20053;-79
2021/09/23 04:31:17;;;;;;;23.90;12.40;;;;;;;9.74;100.00;98216.72;4999066;28;20048;-77
2021/09/23 04:33:44;;;;;;;25.42;12.90;;;;;;;9.69;100.00;98219.50;5010524;23;20088;-81
2021/09/23 04:36:11;;;;;;;20.00;11.50;;;;;;;9.74;100.00;98235.66;4990504;28;20070;-81
2021/09/23 04:38:37;;;;;;;24.10;13.55;;;;;;;9.80;100.00;98229.06;4969609;28;20095;-78
2021/09/23 04:41:04;;;;;;;31.58;15.80;;;;;;;10.07;100.00;98222.13;4972276;28;20038;-79
2021/09/23 04:43:30;;;;;;;39.85;20.05;;;;;;;10.58;100.00;98217.44;4992450;28;20046;-82
2021/09/23 04:45:57;;;;;;;39.00;19.27;;;;;;;10.93;100.00;98210.50;5011159;28;20045;-82
2021/09/23 05:42:39;;;;;;;11.73;8.18;;;;;;;12.96;100.00;98151.59;4907937;29;20515;-81
2021/09/23 05:45:10;;;;;;;13.63;8.43;;;;;;;13.07;100.00;98144.78;4914202;29;20055;-81
2021/09/23 05:47:38;;;;;;;14.15;8.15;;;;;;;13.04;100.00;98158.16;4921305;29;20129;-79
2021/09/23 05:50:06;;;;;;;16.80;7.55;;;;;;;13.24;100.00;98152.13;4931400;29;20055;-79
2021/09/23 05:52:36;;;;;;;14.88;8.02;;;;;;;13.27;100.00;98159.66;4936812;29;20062;-80
2021/09/23 05:55:04;;;;;;;15.23;8.43;;;;;;;13.46;100.00;98152.00;4949294;29;20055;-80
2021/09/23 05:57:34;;;;;;;13.50;8.00;;;;;;;13.51;100.00;98151.81;4948993;29;20058;-80
2021/09/23 06:00:05;;;;;;;15.65;7.88;;;;;;;13.59;100.00;98159.19;4948096;29;20051;-81
2021/09/23 06:02:32;;;;;;;13.10;7.72;;;;;;;13.61;100.00;98145.25;4924768;29;20150;-80
2021/09/23 06:04:59;;;;;;;15.20;7.90;;;;;;;13.58;100.00;98140.44;4901028;29;20048;-80
2021/09/23 06:07:25;;;;;;;15.07;7.95;;;;;;;13.69;100.00;98145.25;4911688;29;20063;-81
2021/09/23 06:09:52;;;;;;;13.63;7.45;;;;;;;13.78;100.00;98144.44;4895829;29;20044;-81
2021/09/23 06:12:18;;;;;;;13.77;7.82;;;;;;;13.86;100.00;98159.97;4896029;29;20040;-80
2021/09/23 06:14:46;;;;;;;16.17;7.38;;;;;;;13.88;100.00;98144.91;4912553;29;20069;-79
2021/09/23 06:17:13;;;;;;;15.23;7.43;;;;;;;13.89;100.00;98129.34;4934938;29;20704;-81
2021/09/23 06:19:40;;;;;;;14.25;7.50;;;;;;;13.97;100.00;98133.97;4922531;29;20055;-81
2021/09/23 06:22:07;;;;;;;13.52;6.78;;;;;;;13.96;100.00;98138.63;4917054;29;20040;-81
2021/09/23 06:24:35;;;;;;;16.98;7.25;;;;;;;14.00;100.00;98125.97;4940554;29;20039;-81
2021/09/23 06:27:02;;;;;;;13.10;6.63;;;;;;;14.20;100.00;98132.63;4920276;29;20051;-81
2021/09/23 06:29:28;;;;;;;13.18;7.22;;;;;;;14.29;100.00;98130.69;4921849;29;20110;-81
2021/09/23 06:31:57;;;;;;;10.50;6.20;;;;;;;14.23;100.00;98132.78;4940631;29;20078;-82
2021/09/23 06:34:24;;;;;;;13.43;6.35;;;;;;;14.29;100.00;98136.13;4898364;29;20047;-82
2021/09/23 06:36:50;;;;;;;13.20;6.57;;;;;;;14.41;100.00;98146.34;4917734;29;20051;-83
2021/09/23 06:39:17;;;;;;;9.43;6.60;;;;;;;14.31;100.00;98140.16;4921440;29;20051;-83
2021/09/23 06:41:46;;;;;;;11.32;6.35;;;;;;;14.41;100.00;98136.25;4907916;29;20137;-81
2021/09/23 06:44:13;;;;;;;10.93;6.60;;;;;;;14.47;100.00;98142.31;4903358;29;20052;-80
2021/09/23 06:46:39;;;;;;;13.20;6.22;;;;;;;14.60;100.00;98135.84;4937423;29;20047;-81
2021/09/23 06:49:06;;;;;;;9.68;5.95;;;;;;;14.66;100.00;98132.59;4935038;29;20055;-81
2021/09/23 06:51:33;;;;;;;13.60;6.10;;;;;;;14.76;100.00;98128.72;4913714;29;20040;-81
2021/09/23 06:54:07;;;;;;;19.90;6.57;;;;;;;14.78;100.00;98127.25;4914715;29;20062;-81
2021/09/23 06:56:34;;;;;;;8.93;5.18;;;;;;;15.01;100.00;98135.13;4913073;29;20059;-83
2021/09/23 06:59:01;;;;;;;9.70;4.97;;;;;;;15.19;100.00;98131.16;4914156;29;20043;-80
2021/09/23 07:01:29;;;;;;;8.85;5.13;;;;;;;15.16;100.00;98129.09;4906737;29;20431;-82
2021/09/23 07:03:56;;;;;;;8.75;5.20;;;;;;;15.36;100.00;98133.72;4931695;29;20058;-80
2021/09/23 07:06:23;;;;;;;8.50;5.03;;;;;;;15.40;100.00;98127.28;4931008;29;20047;-80
2021/09/23 07:08:50;;;;;;;8.25;4.90;;;;;;;15.39;100.00;98119.44;4931491;29;20050;-83
2021/09/23 07:11:16;;;;;;;9.57;5.50;;;;;;;15.58;100.00;98126.03;4910086;29;20052;-81
2021/09/23 07:13:44;;;;;;;10.25;5.18;;;;;;;15.42;100.00;98116.03;4911695;29;20056;-82
2021/09/23 07:16:14;;;;;;;8.10;4.60;;;;;;;15.61;100.00;98123.78;4914423;29;20063;-80
2021/09/23 07:18:41;;;;;;;9.25;4.78;;;;;;;15.63;100.00;98118.78;4925030;29;20094;-82
2021/09/23 07:21:07;;;;;;;6.90;4.50;;;;;;;15.66;100.00;98118.09;4929723;29;20055;-82
2021/09/23 07:23:34;;;;;;;9.73;4.85;;;;;;;15.68;100.00;98116.63;4918511;29;20563;-82
2021/09/23 07:26:01;;;;;;;9.50;5.00;;;;;;;15.76;100.00;98114.94;4902004;29;20060;-82
2021/09/23 07:28:28;;;;;;;7.95;4.90;;;;;;;16.01;100.00;98122.06;4933211;29;20511;-81
2021/09/23 07:30:55;;;;;;;10.73;5.00;;;;;;;15.99;100.00;98105.22;4933010;29;20257;-81
2021/09/23 07:33:22;;;;;;;8.50;5.18;;;;;;;15.99;100.00;98102.50;4915571;29;20380;-82
2021/09/23 07:35:49;;;;;;;12.48;4.38;;;;;;;16.00;100.00;98098.63;4916228;29;20054;-82
2021/09/23 07:38:15;;;;;;;6.53;4.50;;;;;;;16.20;100.00;98084.91;4932895;29;20495;-80
2021/09/23 07:40:42;;;;;;;8.25;4.15;;;;;;;16.28;100.00;98098.78;4917654;29;20050;-79
2021/09/23 07:43:09;;;;;;;10.70;4.65;;;;;;;16.59;100.00;98097.13;4938162;29;20118;-82
2021/09/23 07:45:36;;;;;;;6.90;4.40;;;;;;;16.74;100.00;98101.09;4916938;29;20063;-81
2021/09/23 07:48:03;;;;;;;5.78;4.05;;;;;;;16.50;100.00;98090.94;4911902;29;20059;-80
2021/09/23 07:50:31;;;;;;;7.63;4.07;;;;;;;16.55;100.00;98089.91;4915831;29;20574;-80
2021/09/23 07:52:57;;;;;;;7.72;4.25;;;;;;;16.79;100.00;98081.72;4915865;29;20040;-80
2021/09/23 07:55:24;;;;;;;11.75;3.70;;;;;;;16.70;100.00;98070.88;4916244;29;20082;-81
2021/09/23 07:57:50;;;;;;;9.50;4.13;;;;;;;16.80;100.00;98077.84;4917453;29;20051;-80
2021/09/23 08:00:17;;;;;;;11.80;4.60;;;;;;;16.92;100.00;98080.56;4917267;29;20066;-81
2021/09/23 08:02:44;;;;;;;7.32;4.00;;;;;;;16.96;100.00;98075.97;4881923;29;20059;-80
2021/09/23 08:05:12;;;;;;;8.10;4.18;;;;;;;17.12;100.00;98082.31;4881523;29;20056;-81
2021/09/23 08:07:39;;;;;;;10.90;4.72;;;;;;;17.38;100.00;98065.47;4914138;29;20194;-80
2021/09/23 08:10:06;;;;;;;10.38;4.18;;;;;;;17.12;100.00;98063.16;4897988;29;20893;-80
2021/09/23 08:12:33;;;;;;;9.48;3.90;;;;;;;17.38;100.00;98062.72;4939500;29;20520;-81
2021/09/23 08:15:04;;;;;;;7.07;4.10;;;;;;;17.33;100.00;98054.78;4950839;29;20418;-80
2021/09/23 08:17:31;;;;;;;7.63;3.58;;;;;;;17.68;100.00;98044.81;4919860;29;20062;-80
2021/09/23 08:19:58;;;;;;;8.90;3.75;;;;;;;17.53;100.00;98047.50;4935901;29;20047;-80
2021/09/23 08:22:25;;;;;;;7.10;3.63;;;;;;;17.71;100.00;98043.31;4933428;29;20047;-79
2021/09/23 08:24:52;;;;;;;7.57;3.53;;;;;;;17.86;100.00;98037.84;4952743;29;20113;-83
2021/09/23 08:27:18;;;;;;;8.65;4.07;;;;;;;17.89;100.00;98039.09;4936956;28;20503;-81
2021/09/23 08:29:45;;;;;;;7.13;3.47;;;;;;;17.89;100.00;98023.47;4923001;29;20046;-83
2021/09/23 08:32:17;;;;;;;9.25;3.40;;;;;;;18.02;100.00;98026.91;4938176;29;20498;-83
2021/09/23 08:34:46;;;;;;;6.55;3.50;;;;;;;18.35;100.00;98012.84;4921423;29;20051;-83
2021/09/23 08:37:14;;;;;;;6.00;3.38;;;;;;;18.30;100.00;98013.13;4935236;29;20467;-82
2021/09/23 08:39:45;;;;;;;9.68;3.20;;;;;;;18.68;100.00;98010.50;4952289;29;20052;-83
2021/09/23 08:42:12;;;;;;;7.22;3.25;;;;;;;18.26;100.00;98015.75;4921276;29;20051;-82
2021/09/23 08:44:42;;;;;;;6.63;3.35;;;;;;;18.53;100.00;98020.34;4931785;29;20052;-82
2021/09/23 08:47:09;;;;;;;11.90;3.60;;;;;;;18.59;100.00;98024.41;4922124;29;20059;-82
2021/09/23 08:49:36;;;;;;;5.45;3.28;;;;;;;18.48;100.00;98019.81;4932914;29;20059;-82
2021/09/23 08:52:02;;;;;;;8.00;3.53;;;;;;;18.48;100.00;98023.34;4914976;29;20127;-82
2021/09/23 08:54:29;;;;;;;10.00;3.13;;;;;;;18.81;100.00;98008.41;4899293;29;20063;-82
2021/09/23 08:57:01;;;;;;;6.57;2.97;;;;;;;18.77;100.00;98011.06;4932003;29;20062;-82
2021/09/23 08:59:30;;;;;;;10.43;3.60;;;;;;;18.65;100.00;98001.03;4934686;29;20043;-82
2021/09/23 09:02:00;;;;;;;5.13;3.10;;;;;;;18.96;100.00;97996.59;4915032;29;20130;-81
2021/09/23 09:04:33;;;;;;;5.75;3.10;;;;;;;19.14;100.00;97997.75;4914315;29;20528;-80
2021/09/23 09:07:02;;;;;;;5.75;3.10;;;;;;;19.32;100.00;97998.88;4914612;29;20056;-80
2021/09/23 09:09:29;;;;;;;6.45;3.38;;;;;;;19.17;100.00;97984.09;4913929;29;20428;-81
2021/09/23 09:12:12;;;;;;;7.97;3.28;;;;;;;20.01;100.00;97986.00;4914015;29;20468;-82
2021/09/23 09:14:41;;;;;;;6.63;3.22;;;;;;;19.68;100.00;97981.94;4914522;29;20055;-82
2021/09/23 09:17:08;;;;;;;6.97;3.30;;;;;;;19.99;100.00;97966.34;4914744;29;20055;-81
2021/09/23 09:19:57;;;;;;;7.60;3.17;;;;;;;19.40;100.00;97959.47;4914151;29;20127;-81
2021/09/23 09:22:27;;;;;;;8.25;2.97;;;;;;;19.67;100.00;97954.81;4914318;29;20047;-82
2021/09/23 09:24:55;;;;;;;7.05;3.05;;;;;;;19.88;100.00;97942.25;4930413;29;20052;-80
2021/09/23 09:27:37;;;;;;;4.72;2.80;;;;;;;20.04;100.00;97944.06;4898210;29;20570;-81
2021/09/23 09:30:18;;;;;;;6.65;3.03;;;;;;;20.03;100.00;97947.97;4931874;29;20094;-82
2021/09/23 09:32:56;;;;;;;10.18;3.63;;;;;;;20.34;100.00;97953.16;4899615;29;20542;-82
2021/09/23 09:35:26;;;;;;;13.68;4.22;;;;;;;20.17;100.00;97942.69;4931921;29;20079;-83
2021/09/23 09:37:55;;;;;;;16.85;4.30;;;;;;;20.21;100.00;97938.03;4915064;29;20051;-83
2021/09/23 09:40:26;;;;;;;10.65;3.20;;;;;;;20.30;100.00;97935.84;4906802;29;20052;-82
2021/09/23 09:42:54;;;;;;;8.45;2.85;;;;;;;20.50;100.00;97932.59;4915076;29;20222;-83
2021/09/23 09:45:25;;;;;;;6.88;2.88;;;;;;;20.85;100.00;97953.50;4933784;29;20150;-83
2021/09/23 09:47:53;;;;;;;8.10;3.17;;;;;;;20.73;100.00;97946.25;4941940;29;20131;-85
2021/09/23 09:50:26;;;;;;;15.18;3.42;;;;;;;20.70;100.00;97955.25;4923589;28;20510;-82
2021/09/23 09:53:02;;;;;;;5.80;3.03;;;;;;;20.35;100.00;97957.53;4915337;29;20083;-81
2021/09/23 09:55:32;;;;;;;8.32;3.33;;;;;;;20.38;100.00;97934.78;4898738;29;20062;-82
2021/09/23 09:58:00;;;;;;;10.35;3.95;;;;;;;20.82;100.00;97941.28;4933630;29;20051;-80
2021/09/23 10:00:28;;;;;;;7.20;3.20;;;;;;;20.89;99.65;97924.84;4916074;29;20069;-82
2021/09/23 10:02:55;;;;;;;6.55;3.00;;;;;;;21.22;100.00;97924.06;4925638;29;20517;-82
2021/09/23 10:05:23;;;;;;;9.07;3.58;;;;;;;21.31;94.69;97913.53;4942058;29;20671;-84
2021/09/23 10:07:57;;;;;;;5.53;3.10;;;;;;;21.66;94.67;97908.34;4912586;29;20055;-83
2021/09/23 10:10:27;;;;;;;12.25;4.28;;;;;;;21.85;90.68;97907.34;4924764;29;20050;-82
2021/09/23 10:13:03;;;;;;;10.48;3.03;;;;;;;21.69;85.17;97891.06;4925787;29;20043;-81
2021/09/23 10:15:30;;;;;;;10.90;3.17;;;;;;;22.41;77.95;97884.88;4925478;29;20058;-82
2021/09/23 10:18:00;;;;;;;7.72;3.20;;;;;;;23.13;72.89;97872.94;4923224;29;20039;-82
2021/09/23 10:20:28;;;;;;;9.40;3.55;;;;;;;23.06;70.22;97873.72;4910848;29;20065;-83
2021/09/23 10:22:56;;;;;;;8.20;2.97;;;;;;;23.02;72.89;97866.63;4908803;29;20047;-82
2021/09/23 10:25:32;;;;;;;10.18;3.00;;;;;;;23.35;66.79;97864.31;4914986;29;20054;-81
2021/09/23 10:28:02;;;;;;;4.63;2.40;;;;;;;23.33;69.29;97860.38;4914357;29;20051;-80
2021/09/23 10:30:31;;;;;;;5.70;2.88;;;;;;;22.74;67.72;97870.88;4915836;29;20051;-80
2021/09/23 10:33:00;;;;;;;8.55;3.08;;;;;;;23.16;66.01;97864.66;4915275;29;20794;-80
2021/09/23 10:35:29;;;;;;;6.65;2.75;;;;;;;22.22;71.10;97854.84;4930830;29;20107;-81
2021/09/23 10:37:59;;;;;;;9.20;2.85;;;;;;;22.59;69.79;97849.06;4915282;29;20055;-82
2021/09/23 10:40:30;;;;;;;5.20;2.80;;;;;;;22.35;70.98;97845.81;4898147;29;20417;-82
2021/09/23 10:43:06;;;;;;;5.07;2.78;;;;;;;22.09;70.45;97840.56;4911781;29;20036;-82
2021/09/23 10:45:35;;;;;;;8.77;2.50;;;;;;;21.61;84.45;97837.06;4915141;29;20062;-82
2021/09/23 10:48:03;;;;;;;4.70;2.90;;;;;;;21.22;89.07;97840.66;4914484;29;20063;-82
2021/09/23 10:50:37;;;;;;;3.50;2.60;;;;;;;21.49;75.23;97826.34;4932819;29;20056;-81
2021/09/23 10:53:07;;;;;;;;;;;;;;;21.90;74.40;97838.09;4944634;29;20468;-80
2021/09/23 10:55:37;;;;;;;6.15;2.65;;;;;;;21.35;69.19;97833.69;4955260;29;20714;-82
2021/09/23 10:58:06;;;;;;;6.57;2.63;;;;;;;21.93;66.22;97840.09;4938299;29;20051;-82
2021/09/23 11:00:35;;;;;;;4.55;2.80;;;;;;;22.19;64.99;97842.63;4937651;29;20589;-82
2021/09/23 11:03:09;;;;;;;4.97;2.47;;;;;;;23.00;62.60;97827.53;4937457;29;20039;-82
2021/09/23 11:05:38;;;;;;;7.07;2.83;;;;;;;23.94;62.51;97821.28;4955267;29;20142;-81
2021/09/23 11:08:10;;;;;;;4.47;2.40;;;;;;;24.67;54.12;97811.16;4936644;29;20305;-83
2021/09/23 11:10:43;;;;;;;6.43;2.60;;;;;;;25.33;52.24;97813.94;4954586;29;20057;-82
2021/09/23 11:13:12;;;;;;;6.07;2.65;;;;;;;25.81;49.84;97789.78;4921747;29;20078;-82
2021/09/23 11:15:44;;;;;;;8.15;2.78;;;;;;;26.36;49.41;97792.38;4938269;29;20660;-83
2021/09/23 11:18:12;;;;;;;6.18;2.88;;;;;;;25.15;49.37;97785.56;4937311;29;20113;-82
2021/09/23 11:20:47;;;;;;;6.30;2.80;;;;;;;25.31;48.30;97777.53;4938588;29;20050;-83
2021/09/23 11:23:13;;;;;;;5.80;2.58;;;;;;;26.43;48.87;97785.94;4929143;29;20112;-81
2021/09/23 11:25:51;;;;;;;7.15;2.70;;;;;;;25.20;48.40;97787.91;4918666;29;20143;-82
2021/09/23 11:28:19;;;;;;;5.07;2.63;;;;;;;25.93;46.97;97774.63;4918941;29;20058;-83
2021/09/23 11:30:46;;;;;;;7.80;2.67;;;;;;;25.55;47.18;97773.03;4919159;29;20638;-84
2021/09/23 11:33:14;;;;;;;4.88;2.55;;;;;;;25.13;47.95;97772.16;4919293;29;20071;-82
2021/09/23 11:35:44;;;;;;;4.55;2.58;;;;;;;24.71;48.63;97775.94;4921292;29;20052;-84
2021/09/23 11:38:14;;;;;;;4.25;2.78;;;;;;;25.63;47.04;97757.91;4954469;29;20054;-83
2021/09/23 11:40:43;;;;;;;9.85;2.80;;;;;;;25.67;45.77;97758.63;4921169;29;20058;-83
2021/09/23 11:43:12;;;;;;;5.97;2.40;;;;;;;26.79;45.71;97755.75;4929203;29;20131;-83
2021/09/23 11:45:46;;;;;;;5.75;2.50;;;;;;;26.50;45.91;97753.34;4918161;29;20051;-82
2021/09/23 11:48:15;;;;;;;5.45;2.90;;;;;;;26.35;45.68;97746.38;4917712;29;20051;-85
2021/09/23 11:51:00;;;;;;;3.50;2.78;;;;;;;26.23;44.42;97746.94;4969243;23;20400;-78
2021/09/23 11:53:33;;;;;;;3.08;2.50;;;;;;;25.74;43.79;97742.72;4897066;29;20056;-79
2021/09/23 11:56:08;;;;;;;4.75;2.60;;;;;;;27.41;41.83;97735.75;4922328;29;20052;-80
2021/09/23 11:58:38;;;;;;;4.70;2.78;;;;;;;27.02;42.02;97731.56;4918300;29;20087;-79
2021/09/23 12:01:07;;;;;;;5.93;2.67;;;;;;;27.45;39.79;97728.13;4901217;29;20378;-81
2021/09/23 12:03:42;;;;;;;4.25;2.55;;;;;;;25.94;41.55;97735.34;4914003;29;20501;-81
2021/09/23 12:06:10;;;;;;;;;;;;;;;25.87;42.03;97720.78;4918239;29;20134;-80
2021/09/23 12:08:40;;;;;;;5.90;2.70;;;;;;;25.46;42.37;97703.38;4917431;29;19927;-80
2021/09/23 12:11:09;;;;;;;4.45;2.90;;;;;;;25.42;44.56;97704.16;4922496;29;20056;-80
2021/09/23 12:13:46;;;;;;;5.45;2.75;;;;;;;25.46;44.16;97698.63;4899843;29;20055;-79
2021/09/23 12:16:22;;;;;;;6.40;2.63;;;;;;;26.32;42.54;97680.59;4905312;29;20076;-82
2021/09/23 12:18:50;;;;;;;6.10;2.85;;;;;;;25.83;42.04;97684.78;4923316;29;20062;-80
2021/09/23 12:21:24;;;;;;;6.90;2.42;;;;;;;27.07;42.81;97691.41;4935282;29;20059;-80